Time;durP1;ratioP1;P1;durP2;ratioP2;P2;SDS_P1;SDS_P2;PMS_P1;PMS_P2;Temp;Humidity;BMP_temperature;BMP_pressure;BME280_temperature;BME280_humidity;BME280_pressure;Samples;Min_cycle;Max_cycle;Signal;HPM_P1;HPM_P2
2022/03/11 00:01:55;;;;;;;6.77;6.07;;;5.00;52.00;;;;;;5014071;28;20194;-69
2022/03/11 00:04:21;;;;;;;6.33;5.70;;;5.10;52.20;;;;;;5013199;28;20195;-69
2022/03/11 00:06:46;;;;;;;8.53;6.30;;;5.10;52.30;;;;;;5012329;28;20205;-69
2022/03/11 00:09:12;;;;;;;7.70;6.07;;;5.10;52.30;;;;;;5013695;28;20516;-69
2022/03/11 00:11:38;;;;;;;9.70;7.57;;;5.20;52.60;;;;;;5013761;28;20406;-69
2022/03/11 00:14:03;;;;;;;8.77;7.30;;;5.20;53.30;;;;;;5013769;28;20690;-69
2022/03/11 00:16:29;;;;;;;9.43;6.60;;;5.10;53.20;;;;;;5013204;28;20190;-69
2022/03/11 00:18:54;;;;;;;8.27;6.30;;;5.00;53.90;;;;;;5014428;28;20175;-69
2022/03/11 00:21:20;;;;;;;7.20;6.30;;;4.90;54.50;;;;;;5013805;28;20672;-68
2022/03/11 00:23:46;;;;;;;10.10;8.20;;;4.80;55.30;;;;;;5013546;28;20278;-68
2022/03/11 00:26:12;;;;;;;11.70;8.30;;;4.80;55.60;;;;;;5013701;28;20179;-68
2022/03/11 00:28:38;;;;;;;11.80;9.07;;;4.80;55.80;;;;;;5013138;28;20249;-68
2022/03/11 00:31:05;;;;;;;9.73;7.87;;;4.90;56.10;;;;;;5013996;28;20433;-69
2022/03/11 00:33:31;;;;;;;12.47;9.00;;;4.90;56.30;;;;;;5013056;28;20770;-68
2022/03/11 00:35:57;;;;;;;12.07;9.17;;;4.90;56.50;;;;;;5013140;28;20528;-69
2022/03/11 00:38:23;;;;;;;8.87;7.73;;;5.10;56.70;;;;;;5014154;28;20869;-69
2022/03/11 00:40:48;;;;;;;12.27;9.37;;;5.10;56.90;;;;;;5012905;28;20246;-69
2022/03/11 00:43:14;;;;;;;10.03;8.30;;;5.10;57.30;;;;;;5011466;28;20213;-68
2022/03/11 00:45:40;;;;;;;12.43;8.90;;;5.00;57.60;;;;;;5013109;28;20437;-69
2022/03/11 00:48:05;;;;;;;9.67;8.00;;;5.00;58.20;;;;;;5013236;28;20630;-69
2022/03/11 00:50:31;;;;;;;10.30;8.23;;;4.80;58.60;;;;;;5012840;28;20221;-68
2022/03/11 00:52:56;;;;;;;12.33;9.53;;;4.70;59.40;;;;;;5013163;28;20578;-68
2022/03/11 00:55:22;;;;;;;13.30;9.67;;;4.60;59.90;;;;;;5012847;28;20569;-69
2022/03/11 00:57:47;;;;;;;17.40;10.23;;;4.70;60.40;;;;;;5013937;28;20639;-68
2022/03/11 01:00:13;;;;;;;11.90;9.67;;;4.80;61.10;;;;;;5012932;28;20215;-69
2022/03/11 01:02:39;;;;;;;13.70;10.63;;;4.80;62.00;;;;;;5012396;28;20202;-68
2022/03/11 01:05:06;;;;;;;12.10;9.90;;;4.80;63.10;;;;;;5012798;28;20927;-69
2022/03/11 01:07:33;;;;;;;16.33;11.73;;;4.80;64.00;;;;;;5013208;28;20171;-69
2022/03/11 01:09:59;;;;;;;14.70;11.70;;;4.80;65.20;;;;;;5012400;28;20531;-68
2022/03/11 01:12:25;;;;;;;21.67;12.47;;;4.80;66.80;;;;;;5012509;28;20517;-69
2022/03/11 01:14:50;;;;;;;13.30;11.03;;;4.80;67.70;;;;;;5012716;28;20865;-69
2022/03/11 01:17:16;;;;;;;13.67;11.57;;;4.90;68.90;;;;;;5012560;28;20179;-68
2022/03/11 01:19:41;;;;;;;18.67;12.50;;;4.90;69.40;;;;;;5012441;28;20691;-69
2022/03/11 01:22:08;;;;;;;14.20;12.63;;;4.90;70.40;;;;;;5012776;28;20229;-68
2022/03/11 01:24:33;;;;;;;16.50;12.40;;;4.70;71.30;;;;;;5012523;28;20183;-69
2022/03/11 01:26:59;;;;;;;15.07;12.33;;;4.60;73.20;;;;;;5012191;28;20943;-69
2022/03/11 01:29:25;;;;;;;15.23;12.23;;;4.60;74.80;;;;;;5012672;28;20229;-68
2022/03/11 01:31:54;;;;;;;14.50;12.53;;;4.50;76.10;;;;;;5012194;28;20465;-68
2022/03/11 01:34:20;;;;;;;18.63;12.83;;;4.50;77.30;;;;;;5012279;28;20190;-69
2022/03/11 01:36:49;;;;;;;19.20;12.53;;;4.50;78.50;;;;;;5012402;28;20433;-69
2022/03/11 01:39:15;;;;;;;16.57;13.03;;;4.40;79.50;;;;;;5012098;28;20499;-68
2022/03/11 01:41:41;;;;;;;15.87;12.93;;;4.20;81.70;;;;;;5011232;28;20935;-69
2022/03/11 01:44:08;;;;;;;16.60;12.37;;;4.30;83.00;;;;;;5012054;28;20533;-69
2022/03/11 01:46:35;;;;;;;18.57;12.20;;;4.20;83.90;;;;;;5010547;28;20182;-69
2022/03/11 01:49:02;;;;;;;19.93;13.27;;;4.20;85.10;;;;;;5012025;28;20499;-68
2022/03/11 01:51:30;;;;;;;19.80;13.73;;;4.00;87.10;;;;;;5012450;28;20446;-68
2022/03/11 01:53:56;;;;;;;20.30;13.60;;;4.00;89.20;;;;;;5011248;28;20539;-68
2022/03/11 01:56:24;;;;;;;19.23;13.03;;;3.90;90.10;;;;;;5010636;28;20448;-68
2022/03/11 01:58:52;;;;;;;17.17;13.17;;;3.90;90.60;;;;;;5011988;28;20452;-67
2022/03/11 02:01:19;;;;;;;17.17;13.50;;;3.90;91.00;;;;;;5011837;28;20488;-67
2022/03/11 02:03:44;;;;;;;20.07;12.77;;;3.90;91.50;;;;;;5010067;28;20454;-67
2022/03/11 02:06:13;;;;;;;18.83;12.23;;;4.00;91.90;;;;;;5010296;28;20472;-68
2022/03/11 02:08:39;;;;;;;22.13;13.57;;;4.00;92.40;;;;;;5011506;28;20189;-67
2022/03/11 02:11:06;;;;;;;17.60;13.60;;;4.00;93.00;;;;;;5011611;28;20438;-68
2022/03/11 02:13:59;;;;;;;14.73;12.97;;;4.00;93.60;;;;;;5010827;28;20556;-69
2022/03/11 02:16:30;;;;;;;16.73;13.00;;;3.90;94.00;;;;;;5005775;28;20496;-69
2022/03/11 02:18:56;;;;;;;18.47;13.10;;;3.80;95.40;;;;;;5011496;28;20839;-68
2022/03/11 02:21:23;;;;;;;20.07;15.50;;;3.70;95.60;;;;;;5011474;28;20461;-68
2022/03/11 02:23:54;;;;;;;19.83;14.77;;;3.70;96.30;;;;;;5011208;28;20544;-68
2022/03/11 02:26:23;;;;;;;19.60;14.17;;;3.70;96.70;;;;;;5011228;28;20501;-67
2022/03/11 02:28:51;;;;;;;22.20;14.50;;;3.70;97.10;;;;;;5011801;28;20828;-68
2022/03/11 02:31:21;;;;;;;24.07;14.93;;;3.70;97.60;;;;;;5011393;28;20469;-67
2022/03/11 02:33:47;;;;;;;19.40;14.40;;;3.70;97.80;;;;;;5010881;28;20481;-68
2022/03/11 02:36:12;;;;;;;20.87;13.80;;;3.70;98.30;;;;;;5009740;28;20492;-69
2022/03/11 02:38:39;;;;;;;23.40;13.67;;;3.70;98.60;;;;;;5010256;28;20441;-69
2022/03/11 02:41:05;;;;;;;23.27;16.70;;;3.70;99.00;;;;;;5011183;28;20222;-68
2022/03/11 02:43:30;;;;;;;20.00;14.87;;;3.60;99.50;;;;;;5011185;28;20458;-69
2022/03/11 02:45:56;;;;;;;20.37;14.17;;;3.60;99.70;;;;;;5011103;28;20440;-67
2022/03/11 02:48:21;;;;;;;18.40;14.60;;;3.60;99.80;;;;;;5011019;28;20181;-68
2022/03/11 02:50:47;;;;;;;23.90;15.30;;;3.50;99.90;;;;;;5011010;28;20557;-68
2022/03/11 02:53:13;;;;;;;19.30;15.63;;;3.50;99.90;;;;;;5013498;28;20206;-68
2022/03/11 02:55:39;;;;;;;20.27;14.83;;;3.50;99.90;;;;;;5015140;28;20270;-68
2022/03/11 02:58:05;;;;;;;19.97;16.03;;;3.40;99.90;;;;;;5015181;28;20580;-69
2022/03/11 03:00:30;;;;;;;23.67;16.63;;;3.40;99.90;;;;;;5014552;28;20203;-69
2022/03/11 03:02:56;;;;;;;19.07;15.47;;;3.30;99.90;;;;;;5014190;28;20194;-70
2022/03/11 03:05:22;;;;;;;19.93;16.00;;;3.40;99.90;;;;;;5014623;28;20179;-69
2022/03/11 03:07:48;;;;;;;24.60;16.70;;;3.30;99.90;;;;;;5014828;28;20637;-69
2022/03/11 03:10:14;;;;;;;19.40;16.07;;;3.30;99.90;;;;;;5015182;28;20870;-69
2022/03/11 03:12:40;;;;;;;22.93;16.27;;;3.30;99.90;;;;;;5013519;28;20198;-69
2022/03/11 03:15:08;;;;;;;20.77;15.47;;;3.30;99.90;;;;;;5015152;28;20520;-70
2022/03/11 03:17:34;;;;;;;21.30;17.60;;;3.20;99.90;;;;;;5014969;28;20183;-69
2022/03/11 03:20:00;;;;;;;23.13;16.90;;;3.20;99.90;;;;;;5015084;28;20846;-69
2022/03/11 03:22:25;;;;;;;20.40;15.43;;;3.20;99.90;;;;;;5015149;28;20891;-68
2022/03/11 03:24:51;;;;;;;26.90;18.03;;;3.20;99.90;;;;;;5015282;28;20516;-69
2022/03/11 03:27:17;;;;;;;22.33;16.80;;;3.20;99.90;;;;;;5023053;28;20175;-68
2022/03/11 03:29:43;;;;;;;21.10;16.50;;;3.10;99.90;;;;;;5019862;28;20528;-69
2022/03/11 03:32:09;;;;;;;27.47;18.10;;;3.00;99.90;;;;;;5023458;28;20220;-69
2022/03/11 03:34:37;;;;;;;22.67;16.30;;;3.00;99.90;;;;;;5016127;28;20182;-69
2022/03/11 03:37:09;;;;;;;24.97;17.27;;;2.90;99.90;;;;;;5020779;28;20437;-68
2022/03/11 03:39:36;;;;;;;22.57;16.63;;;2.80;99.90;;;;;;5015860;28;20526;-69
2022/03/11 03:42:02;;;;;;;28.20;18.80;;;2.70;99.90;;;;;;5020563;28;20429;-69
2022/03/11 03:44:28;;;;;;;22.07;17.50;;;2.70;99.90;;;;;;5015261;28;20421;-68
2022/03/11 03:46:53;;;;;;;23.03;17.67;;;2.70;99.90;;;;;;5014916;28;20445;-69
2022/03/11 03:49:19;;;;;;;23.53;17.60;;;2.70;99.90;;;;;;5023765;28;20174;-68
2022/03/11 03:51:46;;;;;;;24.00;18.97;;;2.70;99.90;;;;;;5034672;28;20177;-68
2022/03/11 03:54:12;;;;;;;26.30;18.37;;;2.70;99.90;;;;;;5020849;28;20206;-68
2022/03/11 03:56:39;;;;;;;22.93;16.57;;;2.70;99.90;;;;;;5026066;28;20484;-69
2022/03/11 03:59:06;;;;;;;25.90;18.00;;;2.70;99.90;;;;;;5020165;28;20438;-68
2022/03/11 04:01:36;;;;;;;21.90;16.73;;;2.70;99.90;;;;;;5023278;28;20460;-68
2022/03/11 04:04:03;;;;;;;30.50;17.83;;;2.70;99.90;;;;;;5018424;28;20450;-69
2022/03/11 04:06:30;;;;;;;27.00;19.40;;;2.70;99.90;;;;;;5013670;28;20426;-68
2022/03/11 04:08:58;;;;;;;22.40;18.00;;;2.70;99.90;;;;;;5013894;28;20787;-69
2022/03/11 04:11:28;;;;;;;31.00;18.67;;;2.70;99.90;;;;;;5012109;28;20446;-68
2022/03/11 04:13:54;;;;;;;22.53;16.40;;;2.60;99.90;;;;;;5013685;28;20485;-69
2022/03/11 04:16:20;;;;;;;25.63;17.80;;;2.60;99.90;;;;;;5014424;28;20981;-69
2022/03/11 04:18:47;;;;;;;22.30;16.70;;;2.50;99.90;;;;;;5013168;28;20441;-69
2022/03/11 04:21:13;;;;;;;23.13;17.30;;;2.50;99.90;;;;;;5016704;28;20472;-68
2022/03/11 04:23:40;;;;;;;29.97;18.00;;;2.50;99.90;;;;;;5013735;28;20453;-69
2022/03/11 04:26:05;;;;;;;19.93;16.90;;;2.40;99.90;;;;;;5013848;28;20430;-69
2022/03/11 04:28:31;;;;;;;26.30;18.70;;;2.50;99.90;;;;;;5013993;28;20795;-69
2022/03/11 04:30:56;;;;;;;23.70;18.57;;;2.50;99.90;;;;;;5013248;28;20174;-68
2022/03/11 04:33:22;;;;;;;25.60;17.47;;;2.50;99.90;;;;;;5013617;28;20203;-70
2022/03/11 04:35:48;;;;;;;22.87;18.50;;;2.40;99.90;;;;;;5013291;28;20197;-68
2022/03/11 04:38:14;;;;;;;23.43;16.93;;;2.40;99.90;;;;;;5013330;28;20665;-69
2022/03/11 04:40:40;;;;;;;29.37;18.37;;;2.30;99.90;;;;;;5013319;28;20461;-68
2022/03/11 04:43:05;;;;;;;22.10;17.63;;;2.30;99.90;;;;;;5013067;28;20460;-69
2022/03/11 04:45:31;;;;;;;30.10;19.33;;;2.30;99.90;;;;;;5013237;28;20645;-68
2022/03/11 04:47:56;;;;;;;26.60;16.43;;;2.20;99.90;;;;;;5012865;28;20527;-69
2022/03/11 04:50:22;;;;;;;25.37;17.43;;;2.20;99.90;;;;;;5013671;28;20533;-69
2022/03/11 04:52:48;;;;;;;21.20;17.13;;;2.20;99.90;;;;;;5013119;28;20226;-68
2022/03/11 04:55:16;;;;;;;24.67;17.30;;;2.20;99.90;;;;;;5013385;28;20261;-69
2022/03/11 04:57:42;;;;;;;22.40;16.70;;;2.20;99.90;;;;;;5013008;28;20179;-69
2022/03/11 05:00:08;;;;;;;21.33;16.07;;;2.20;99.90;;;;;;5013135;28;20461;-68
2022/03/11 05:02:35;;;;;;;25.27;18.33;;;2.20;99.90;;;;;;5012419;28;20456;-69
2022/03/11 05:05:05;;;;;;;27.10;18.07;;;2.10;99.90;;;;;;5013124;28;20796;-68
2022/03/11 05:07:31;;;;;;;26.00;18.80;;;2.00;99.90;;;;;;5012852;28;20438;-68
2022/03/11 05:09:56;;;;;;;26.33;17.30;;;2.00;99.90;;;;;;5012737;28;20460;-69
2022/03/11 05:12:22;;;;;;;24.73;17.10;;;2.00;99.90;;;;;;5006976;28;20732;-69
2022/03/11 05:14:51;;;;;;;23.90;17.60;;;2.00;99.90;;;;;;5012656;28;20560;-69
2022/03/11 05:17:17;;;;;;;24.17;16.77;;;2.00;99.90;;;;;;5013054;28;20553;-69
2022/03/11 05:19:43;;;;;;;23.37;18.40;;;2.00;99.90;;;;;;5012272;28;20425;-69
2022/03/11 05:22:09;;;;;;;29.23;18.93;;;2.00;99.90;;;;;;5012222;28;20182;-69
2022/03/11 05:24:35;;;;;;;25.93;18.20;;;1.90;99.90;;;;;;5012796;28;20426;-68
2022/03/11 05:27:02;;;;;;;17.63;15.40;;;1.90;99.90;;;;;;5012047;28;20242;-69
2022/03/11 05:29:28;;;;;;;20.47;15.07;;;1.90;99.90;;;;;;5012373;28;20430;-68
2022/03/11 05:31:54;;;;;;;22.57;17.13;;;1.90;99.90;;;;;;5012354;28;20441;-69
2022/03/11 05:34:19;;;;;;;20.90;17.20;;;1.90;99.90;;;;;;5012118;28;20368;-69
2022/03/11 05:36:45;;;;;;;21.10;15.10;;;1.80;99.90;;;;;;5012860;28;20179;-68
2022/03/11 05:39:10;;;;;;;22.20;16.17;;;1.80;99.90;;;;;;5012306;28;20261;-68
2022/03/11 05:41:36;;;;;;;21.97;16.60;;;1.80;99.90;;;;;;5011729;28;20265;-69
2022/03/11 05:44:01;;;;;;;21.60;15.80;;;1.80;99.90;;;;;;5011691;28;20195;-68
2022/03/11 05:46:27;;;;;;;22.87;15.37;;;1.70;99.90;;;;;;5012742;28;20175;-69
2022/03/11 05:48:52;;;;;;;23.03;14.80;;;1.70;99.90;;;;;;5012157;28;20261;-69
2022/03/11 05:51:18;;;;;;;18.83;14.30;;;1.60;99.90;;;;;;5012124;28;20186;-69
2022/03/11 05:53:43;;;;;;;20.30;15.40;;;1.60;99.90;;;;;;5011920;28;20746;-68
2022/03/11 05:56:09;;;;;;;20.43;16.20;;;1.60;99.90;;;;;;5011925;28;20193;-69
2022/03/11 05:58:34;;;;;;;18.63;14.20;;;1.60;99.90;;;;;;5011600;28;20203;-68
2022/03/11 06:01:00;;;;;;;22.43;15.20;;;1.60;99.90;;;;;;5008305;28;20632;-69
2022/03/11 06:03:26;;;;;;;21.13;14.10;;;1.60;99.90;;;;;;5011696;28;20281;-69
2022/03/11 06:05:52;;;;;;;22.87;15.37;;;1.70;99.90;;;;;;5010886;28;20252;-68
2022/03/11 06:08:17;;;;;;;19.23;12.80;;;1.70;99.90;;;;;;5011730;28;20641;-68
2022/03/11 06:10:43;;;;;;;19.60;14.50;;;1.70;99.90;;;;;;5011606;28;20442;-69
2022/03/11 06:13:08;;;;;;;19.57;14.50;;;1.70;99.90;;;;;;5016766;28;20226;-68
2022/03/11 06:15:34;;;;;;;22.87;14.93;;;1.70;99.90;;;;;;5015290;28;20248;-69
2022/03/11 06:18:00;;;;;;;21.33;13.17;;;1.70;99.90;;;;;;5015637;28;20174;-68
2022/03/11 06:20:29;;;;;;;17.67;12.17;;;1.80;99.90;;;;;;5011035;28;20210;-68
2022/03/11 06:23:01;;;;;;;17.27;12.53;;;1.90;99.90;;;;;;4998702;28;20453;-68
2022/03/11 06:25:29;;;;;;;16.03;13.20;;;2.50;99.90;;;;;;5011308;28;20979;-69
2022/03/11 06:27:58;;;;;;;18.77;12.13;;;2.70;99.90;;;;;;5011321;28;20927;-67
2022/03/11 06:30:23;;;;;;;18.37;12.73;;;3.00;98.70;;;;;;5011357;28;20927;-69
2022/03/11 06:32:49;;;;;;;20.10;12.90;;;2.90;97.80;;;;;;5009931;28;20449;-69
2022/03/11 06:35:17;;;;;;;16.67;12.57;;;3.00;98.00;;;;;;5010958;28;20722;-70
2022/03/11 06:37:44;;;;;;;15.73;11.07;;;2.90;96.60;;;;;;5010366;28;20251;-68
2022/03/11 06:40:11;;;;;;;16.43;11.23;;;2.90;96.40;;;;;;5011252;28;20469;-68
2022/03/11 06:42:39;;;;;;;17.43;11.37;;;3.10;96.80;;;;;;5011030;28;20453;-69
2022/03/11 06:45:06;;;;;;;18.03;13.03;;;3.20;95.60;;;;;;5011166;28;20500;-67
2022/03/11 06:47:32;;;;;;;16.07;11.20;;;3.10;93.70;;;;;;5011384;28;20431;-68
2022/03/11 06:49:57;;;;;;;12.70;9.60;;;3.10;93.70;;;;;;5010968;28;20456;-68
2022/03/11 06:52:23;;;;;;;16.13;11.00;;;2.80;93.30;;;;;;5009951;28;20449;-68
2022/03/11 06:54:48;;;;;;;13.77;10.40;;;2.70;93.20;;;;;;5007421;28;20277;-68
2022/03/11 06:57:16;;;;;;;17.77;10.33;;;2.70;93.30;;;;;;5031781;23;20317;-68
2022/03/11 06:59:43;;;;;;;14.13;9.53;;;2.70;93.00;;;;;;5008969;28;20175;-68
2022/03/11 07:02:09;;;;;;;15.93;11.00;;;2.80;92.50;;;;;;5008807;28;20444;-67
2022/03/11 07:04:34;;;;;;;14.03;10.10;;;3.00;92.10;;;;;;5010528;28;20442;-67
2022/03/11 07:07:00;;;;;;;13.70;10.10;;;3.00;91.80;;;;;;5010950;28;20198;-68
2022/03/11 07:09:26;;;;;;;12.77;10.20;;;3.10;91.30;;;;;;5010705;28;20703;-67
2022/03/11 07:11:57;;;;;;;16.60;10.37;;;3.20;91.00;;;;;;5010951;28;20229;-67
2022/03/11 07:14:23;;;;;;;13.30;10.40;;;3.20;90.90;;;;;;5004660;28;20425;-68
2022/03/11 07:16:52;;;;;;;11.33;9.10;;;3.30;90.80;;;;;;5010593;28;20456;-67
2022/03/11 07:19:20;;;;;;;12.33;9.17;;;3.50;90.70;;;;;;5010534;28;20437;-67
2022/03/11 07:21:46;;;;;;;16.93;10.97;;;3.60;90.10;;;;;;5010996;28;20970;-67
2022/03/11 07:24:11;;;;;;;14.70;10.30;;;3.70;89.00;;;;;;5010509;28;20430;-66
2022/03/11 07:26:37;;;;;;;14.43;9.30;;;3.90;89.00;;;;;;5010474;28;20281;-67
2022/03/11 07:29:03;;;;;;;16.20;10.27;;;4.00;87.40;;;;;;5011297;28;20277;-67
2022/03/11 07:31:28;;;;;;;12.47;9.20;;;4.00;86.60;;;;;;5010345;28;20187;-67
2022/03/11 07:33:57;;;;;;;15.53;11.20;;;4.00;86.70;;;;;;5010045;28;20175;-68
2022/03/11 07:36:23;;;;;;;13.63;10.07;;;4.10;86.30;;;;;;5010539;28;20199;-67
2022/03/11 07:38:48;;;;;;;14.87;10.57;;;4.20;85.40;;;;;;5010640;28;20503;-67
2022/03/11 07:41:15;;;;;;;14.60;10.30;;;4.20;84.70;;;;;;5012673;28;20700;-67
2022/03/11 07:43:50;;;;;;;19.50;11.70;;;4.30;84.80;;;;;;5012879;28;20179;-67
2022/03/11 07:46:16;;;;;;;21.57;11.03;;;4.80;90.10;;;;;;5014010;28;20433;-67
2022/03/11 07:48:42;;;;;;;17.80;10.00;;;5.30;88.80;;;;;;5014960;28;20425;-67
2022/03/11 07:51:08;;;;;;;14.20;10.37;;;6.40;82.70;;;;;;5013770;28;20198;-67
2022/03/11 07:53:35;;;;;;;17.77;13.80;;;6.90;78.10;;;;;;5014561;28;20445;-67
2022/03/11 07:56:00;;;;;;;15.00;11.10;;;6.70;74.70;;;;;;5014134;28;20647;-67
2022/03/11 07:58:26;;;;;;;18.60;12.33;;;7.20;75.30;;;;;;5013671;28;20535;-67
2022/03/11 08:00:52;;;;;;;15.53;10.13;;;6.90;72.40;;;;;;4988241;28;21169;-69
2022/03/11 08:03:18;;;;;;;12.70;10.93;;;6.60;78.20;;;;;;4981823;28;20260;-66
2022/03/11 08:05:44;;;;;;;14.63;11.30;;;7.40;73.50;;;;;;5009792;28;20837;-66
2022/03/11 08:08:10;;;;;;;13.90;11.30;;;7.80;71.50;;;;;;5009673;28;20457;-66
2022/03/11 08:10:37;;;;;;;16.87;12.53;;;7.80;68.30;;;;;;5007393;28;20589;-66
2022/03/11 08:13:03;;;;;;;18.17;13.20;;;7.50;69.70;;;;;;5009537;28;20649;-65
2022/03/11 08:15:29;;;;;;;21.33;13.53;;;7.10;69.90;;;;;;5009180;28;20446;-66
2022/03/11 08:17:55;;;;;;;18.17;13.03;;;7.10;71.30;;;;;;5009606;28;20455;-67
2022/03/11 08:20:20;;;;;;;15.43;13.77;;;6.80;72.30;;;;;;5004891;28;20240;-67
2022/03/11 08:22:48;;;;;;;18.60;14.77;;;6.90;72.70;;;;;;5010035;28;20592;-67
2022/03/11 08:25:15;;;;;;;18.27;13.73;;;7.00;73.30;;;;;;5009854;28;20647;-67
2022/03/11 08:27:41;;;;;;;18.43;13.60;;;7.50;72.40;;;;;;5009494;28;20814;-67
2022/03/11 08:30:08;;;;;;;18.97;13.23;;;7.80;71.10;;;;;;5006398;28;20442;-67
2022/03/11 08:32:34;;;;;;;17.20;13.10;;;7.80;71.30;;;;;;5009152;28;20441;-67
2022/03/11 08:35:01;;;;;;;19.20;13.57;;;7.80;70.10;;;;;;5009110;28;20438;-67
2022/03/11 08:37:26;;;;;;;18.23;13.97;;;8.30;69.30;;;;;;5005834;28;20508;-67
2022/03/11 08:39:52;;;;;;;19.90;14.10;;;8.80;68.40;;;;;;5007062;28;20481;-68
2022/03/11 08:42:18;;;;;;;19.03;14.40;;;9.20;66.90;;;;;;5023305;28;20183;-68
2022/03/11 08:44:44;;;;;;;19.00;12.47;;;9.90;68.30;;;;;;5004093;28;20636;-68
2022/03/11 08:47:10;;;;;;;16.17;13.47;;;10.70;63.90;;;;;;5009460;28;20684;-68
2022/03/11 08:49:35;;;;;;;16.57;13.37;;;11.20;61.20;;;;;;5009675;28;20445;-68
2022/03/11 08:52:01;;;;;;;18.77;14.23;;;11.30;60.80;;;;;;5005796;28;20186;-68
2022/03/11 08:54:27;;;;;;;15.23;13.73;;;11.80;59.60;;;;;;5016834;28;20264;-66
2022/03/11 08:56:53;;;;;;;17.80;15.90;;;11.50;57.00;;;;;;5009144;28;20214;-68
2022/03/11 08:59:19;;;;;;;22.00;16.40;;;11.50;58.00;;;;;;5010148;28;20179;-65
2022/03/11 09:01:44;;;;;;;18.17;15.97;;;12.40;57.30;;;;;;5005520;28;21844;-66
2022/03/11 09:04:10;;;;;;;19.07;15.27;;;12.80;55.40;;;;;;5010007;28;20648;-66
2022/03/11 09:06:36;;;;;;;16.90;15.30;;;13.20;54.00;;;;;;5009573;28;20711;-67
2022/03/11 09:09:02;;;;;;;21.53;18.03;;;13.80;53.50;;;;;;5008990;28;20184;-66
2022/03/11 09:11:27;;;;;;;18.53;16.63;;;13.30;53.30;;;;;;5006179;28;20198;-66
2022/03/11 09:13:53;;;;;;;19.20;16.17;;;12.40;54.00;;;;;;5002577;28;20438;-66
2022/03/11 09:16:18;;;;;;;18.67;16.07;;;12.70;55.10;;;;;;5008304;28;20316;-67
2022/03/11 09:18:47;;;;;;;17.13;15.07;;;13.30;53.20;;;;;;5009593;28;20277;-67
2022/03/11 09:21:13;;;;;;;15.97;14.40;;;14.50;52.00;;;;;;5007379;28;20218;-67
2022/03/11 09:23:39;;;;;;;17.20;13.87;;;14.70;50.10;;;;;;5008498;28;20444;-67
2022/03/11 09:26:05;;;;;;;17.37;14.97;;;14.50;50.30;;;;;;5007164;28;20179;-67
2022/03/11 09:28:31;;;;;;;17.67;15.10;;;13.70;50.20;;;;;;5008026;28;20746;-67
2022/03/11 09:30:57;;;;;;;17.90;15.97;;;14.00;50.40;;;;;;5008214;28;20532;-68
2022/03/11 09:33:24;;;;;;;18.87;15.80;;;14.50;49.80;;;;;;5007962;28;21642;-67
2022/03/11 09:35:49;;;;;;;16.80;15.00;;;15.10;48.90;;;;;;5009040;28;20441;-67
2022/03/11 09:38:15;;;;;;;19.17;15.60;;;14.60;49.00;;;;;;5008429;28;20975;-67
2022/03/11 09:40:43;;;;;;;15.33;13.93;;;15.50;48.10;;;;;;5008428;28;20664;-66
2022/03/11 09:43:11;;;;;;;14.90;13.50;;;14.80;47.50;;;;;;5022837;28;20178;-67
2022/03/11 09:45:37;;;;;;;16.37;14.80;;;15.80;46.90;;;;;;5008887;28;20860;-67
2022/03/11 09:48:03;;;;;;;19.17;14.90;;;15.80;44.80;;;;;;5008473;28;20490;-67
2022/03/11 09:50:29;;;;;;;16.03;14.47;;;16.80;45.10;;;;;;5008612;28;20669;-68
2022/03/11 09:52:55;;;;;;;15.40;13.70;;;17.40;43.10;;;;;;5022456;28;20189;-68
2022/03/11 09:55:21;;;;;;;15.27;13.90;;;17.40;43.00;;;;;;5007814;28;20437;-68
2022/03/11 09:57:46;;;;;;;14.30;13.00;;;16.70;41.70;;;;;;5008481;28;20218;-68
2022/03/11 10:00:12;;;;;;;13.87;12.60;;;17.80;42.30;;;;;;5006588;28;20831;-68
2022/03/11 10:02:44;;;;;;;15.47;13.03;;;18.50;41.10;;;;;;5007444;28;20194;-66
2022/03/11 10:05:10;;;;;;;14.73;13.23;;;18.70;39.40;;;;;;5006150;28;20819;-67
2022/03/11 10:07:35;;;;;;;14.90;13.60;;;18.90;38.90;;;;;;5008244;28;20456;-69
2022/03/11 10:10:16;;;;;;;13.80;11.80;;;18.20;38.30;;;;;;5008289;28;20186;-67
2022/03/11 10:12:44;;;;;;;16.70;13.53;;;18.30;38.80;;;;;;5007564;28;20714;-68
2022/03/11 10:15:10;;;;;;;14.20;11.60;;;17.50;39.00;;;;;;5008263;28;20866;-68
2022/03/11 10:17:38;;;;;;;13.30;12.10;;;18.30;39.60;;;;;;5007864;28;20457;-68
2022/03/11 10:20:05;;;;;;;15.10;13.50;;;19.20;37.10;;;;;;5007951;28;20465;-67
2022/03/11 10:22:32;;;;;;;14.73;13.10;;;19.90;36.60;;;;;;5007688;28;20444;-68
2022/03/11 10:25:08;;;;;;;13.33;11.93;;;19.50;36.00;;;;;;5007946;28;20434;-69
2022/03/11 10:27:57;;;;;;;14.63;13.23;;;19.60;36.00;;;;;;5006996;28;20616;-68
2022/03/11 10:30:24;;;;;;;13.43;12.17;;;20.60;35.50;;;;;;5006316;28;20794;-67
2022/03/11 10:32:54;;;;;;;13.50;12.10;;;21.80;34.00;;;;;;5008633;28;20437;-68
2022/03/11 10:35:28;;;;;;;13.30;12.10;;;21.90;32.60;;;;;;5009205;28;20460;-69
2022/03/11 10:37:59;;;;;;;13.87;12.50;;;22.50;32.10;;;;;;5011606;28;20827;-68
2022/03/11 10:40:25;;;;;;;18.07;11.80;;;22.90;31.10;;;;;;5011139;28;20465;-68
2022/03/11 10:43:08;;;;;;;14.37;13.07;;;24.50;30.00;;;;;;5010556;28;20445;-69
2022/03/11 10:46:03;;;;;;;14.43;13.07;;;25.00;28.70;;;;;;5002380;28;20499;-68
2022/03/11 10:48:49;;;;;;;13.90;12.70;;;23.60;29.30;;;;;;5009928;28;20453;-68
2022/03/11 10:51:30;;;;;;;14.80;13.40;;;21.50;30.00;;;;;;5010639;28;20461;-68
2022/03/11 10:53:57;;;;;;;12.80;11.60;;;22.90;30.10;;;;;;5010596;28;20457;-69
2022/03/11 10:56:40;;;;;;;12.33;11.33;;;23.60;29.70;;;;;;5010934;28;20437;-69
2022/03/11 10:59:27;;;;;;;12.93;11.87;;;24.30;29.00;;;;;;5011176;28;20507;-69
2022/03/11 11:01:55;;;;;;;15.10;13.70;;;24.90;28.50;;;;;;5010838;28;20465;-68
2022/03/11 11:04:20;;;;;;;14.03;12.33;;;22.60;29.00;;;;;;5010116;28;20797;-69
2022/03/11 11:06:46;;;;;;;14.97;13.30;;;22.70;30.00;;;;;;5009809;28;20462;-68
2022/03/11 11:09:14;;;;;;;19.43;14.30;;;24.40;29.00;;;;;;5011239;28;20198;-68
2022/03/11 11:11:40;;;;;;;15.33;12.70;;;25.00;28.50;;;;;;5010050;28;20265;-68
2022/03/11 11:14:10;;;;;;;13.50;12.10;;;26.40;27.80;;;;;;5013282;28;20836;-68
2022/03/11 11:16:46;;;;;;;14.73;13.20;;;27.50;27.10;;;;;;5015056;28;20452;-70
2022/03/11 11:19:14;;;;;;;13.73;12.53;;;28.00;26.50;;;;;;5013363;28;20433;-69
2022/03/11 11:21:42;;;;;;;14.50;13.13;;;28.10;26.00;;;;;;5013795;28;20465;-66
2022/03/11 11:24:17;;;;;;;13.33;12.23;;;27.20;25.70;;;;;;5005917;28;20429;-68
2022/03/11 11:26:48;;;;;;;15.43;12.53;;;27.20;26.90;;;;;;5013671;28;20996;-67
2022/03/11 11:29:18;;;;;;;16.67;15.27;;;28.30;25.80;;;;;;5013231;28;20461;-64
2022/03/11 11:31:45;;;;;;;14.33;12.93;;;29.10;25.10;;;;;;5013938;28;20500;-68
2022/03/11 11:34:31;;;;;;;12.83;11.63;;;29.50;24.90;;;;;;5013455;28;20441;-66
2022/03/11 11:36:58;;;;;;;13.77;12.63;;;29.10;25.20;;;;;;5012212;28;20449;-67
2022/03/11 11:39:26;;;;;;;14.20;13.03;;;29.50;25.10;;;;;;5014311;28;20442;-67
2022/03/11 11:41:55;;;;;;;14.60;13.30;;;28.50;24.70;;;;;;5013207;28;20816;-67
2022/03/11 11:44:32;;;;;;;14.67;13.37;;;28.50;25.00;;;;;;5007484;28;20445;-70
2022/03/11 11:47:08;;;;;;;16.23;13.20;;;29.20;24.80;;;;;;5014373;28;20452;-67
2022/03/11 11:49:47;;;;;;;14.33;13.03;;;29.90;24.50;;;;;;5012065;28;20799;-68
2022/03/11 11:52:25;;;;;;;15.73;14.30;;;30.10;24.30;;;;;;5013545;28;20438;-67
2022/03/11 11:54:50;;;;;;;14.17;12.87;;;30.50;24.00;;;;;;5014108;28;20436;-68
2022/03/11 11:57:17;;;;;;;14.27;12.87;;;30.80;23.70;;;;;;5013982;28;20465;-67
2022/03/11 11:59:43;;;;;;;14.93;13.53;;;30.30;24.00;;;;;;5014203;28;20171;-74
2022/03/11 12:02:26;;;;;;;13.80;12.50;;;27.60;24.30;;;;;;5012951;28;20542;-69
2022/03/11 12:04:51;;;;;;;14.73;13.40;;;26.00;25.60;;;;;;5001007;28;20656;-67
2022/03/11 12:07:18;;;;;;;16.03;14.53;;;26.50;25.70;;;;;;5013320;28;20461;-67
2022/03/11 12:10:01;;;;;;;15.13;13.63;;;28.10;25.20;;;;;;5029415;28;20265;-67
2022/03/11 12:12:30;;;;;;;14.37;12.87;;;28.10;24.50;;;;;;5013802;28;20516;-67
2022/03/11 12:15:05;;;;;;;16.03;14.43;;;27.50;25.10;;;;;;5015312;28;20461;-65
2022/03/11 12:17:44;;;;;;;14.17;12.90;;;26.70;25.00;;;;;;5023736;28;20445;-65
2022/03/11 12:20:35;;;;;;;14.03;12.63;;;26.60;25.70;;;;;;5022326;28;20511;-66
2022/03/11 12:23:05;;;;;;;15.93;13.53;;;27.60;25.20;;;;;;5012593;28;20425;-67
2022/03/11 12:25:34;;;;;;;14.60;13.20;;;27.70;24.80;;;;;;5010389;28;20418;-65
2022/03/11 12:28:09;;;;;;;13.90;12.60;;;28.20;24.80;;;;;;5013520;28;20445;-66
2022/03/11 12:30:59;;;;;;;15.23;14.03;;;30.00;24.60;;;;;;5008459;28;20461;-66
2022/03/11 12:33:39;;;;;;;15.90;14.57;;;31.10;23.70;;;;;;5001855;28;20441;-67
2022/03/11 12:36:10;;;;;;;15.77;14.40;;;32.60;23.10;;;;;;5009905;28;20433;-68
2022/03/11 12:38:38;;;;;;;15.97;14.20;;;32.60;22.80;;;;;;5010013;28;20978;-66